CET,Max TemperatureF,Mean TemperatureF,Min TemperatureF,Max Dew PointF,MeanDew PointF,Min DewpointF,Max Humidity, Mean Humidity, Min Humidity, Max Sea Level PressureIn, Mean Sea Level PressureIn, Min Sea Level PressureIn, Max VisibilityMiles, Mean VisibilityMiles, Min VisibilityMiles, Max Wind SpeedMPH, Mean Wind SpeedMPH, Max Gust SpeedMPH,PrecipitationIn, CloudCover, Events, WindDirDegrees
2012-11-1,51,44,37,52,40,28,100,86,65,29.83,29.57,29.44,6,4,2,21,15,,0.00,7,Rain,96
2012-11-2,57,44,32,48,43,32,100,87,67,29.92,29.74,29.56,6,4,0,14,6,,0.00,5,Fog-Rain,249
2012-11-3,51,42,32,50,41,30,100,98,88,29.98,29.94,29.92,6,2,0,10,4,,0.00,5,Fog,98
2012-11-4,64,52,41,52,48,41,100,80,59,29.92,29.84,29.71,6,6,4,16,8,25,0.00,4,Fog-Rain,141
2012-11-5,59,52,44,55,47,39,94,82,71,29.77,29.57,29.44,6,6,3,22,12,,0.00,6,Rain,257
2012-11-6,55,46,37,39,36,32,93,70,44,30.12,29.96,29.80,6,6,6,22,10,,0.00,4,,263
2012-11-7,50,42,33,39,34,30,87,71,47,30.27,30.20,30.12,6,6,6,23,10,,0.00,6,,256
2012-11-8,57,48,39,41,39,36,93,74,51,30.30,30.21,30.09,6,6,6,15,9,,0.00,4,,226
2012-11-9,55,44,32,43,38,30,93,82,54,30.18,30.08,30.04,6,5,3,17,6,,0.00,2,,297
2012-11-10,44,36,28,43,38,28,100,97,87,30.21,30.15,30.09,4,2,0,14,6,,0.00,6,Fog,104
2012-11-11,51,45,39,43,40,37,93,80,66,30.12,30.09,30.06,5,5,4,16,10,,0.00,,,85
2012-11-12,51,46,42,48,45,39,100,92,81,30.30,30.22,30.12,6,4,2,8,5,,0.00,6,Rain,356
2012-11-13,53,48,42,50,47,37,100,94,71,30.48,30.39,30.30,6,4,1,12,5,,0.00,7,Rain,333
2012-11-14,50,38,26,37,34,27,100,78,54,30.51,30.47,30.45,6,6,3,8,4,,0.00,4,,19
2012-11-15,46,42,37,43,39,36,100,97,87,30.45,30.37,30.30,5,2,0,9,4,,0.00,6,Fog,74
2012-11-16,50,44,37,43,40,37,100,88,62,30.30,30.28,30.24,6,4,2,8,4,,0.00,6,Fog,80
2012-11-17,46,40,35,43,39,34,100,91,81,30.24,30.15,30.09,4,3,2,12,6,,0.00,5,,88
2012-11-18,48,44,39,45,41,37,100,88,76,30.09,30.07,30.04,4,3,2,12,8,,0.00,6,Rain,96
2012-11-19,50,44,35,43,41,36,100,87,71,30.18,30.13,30.09,6,4,2,8,5,,0.00,6,Fog-Rain,64
2012-11-20,51,40,30,46,38,30,100,95,71,30.24,30.20,30.15,4,2,0,9,4,,0.00,4,Fog,51
2012-11-21,48,42,37,43,40,37,100,93,81,30.24,30.23,30.21,4,3,1,7,3,,0.00,6,Fog,97
2012-11-22,46,44,41,45,42,41,100,91,81,30.30,30.28,30.24,4,3,2,8,3,,0.00,7,Rain,101
2012-11-23,46,45,44,46,45,45,100,99,93,30.30,30.25,30.21,2,1,0,7,4,,0.00,8,Fog-Rain,98
2012-11-24,50,42,35,50,44,36,100,99,87,30.27,30.25,30.24,4,1,0,6,3,,0.00,6,Fog,111
2012-11-25,46,42,39,45,42,39,100,99,87,30.24,30.19,30.15,3,1,0,9,5,,0.00,7,Fog,99
2012-11-26,48,44,41,46,43,41,100,98,93,30.15,30.06,29.95,3,2,0,9,7,,0.00,7,Fog,87
2012-11-27,59,50,41,46,43,39,100,80,55,29.95,29.85,29.80,3,3,3,17,8,23,0.00,,,137
2012-11-28,51,46,42,45,43,39,100,84,71,29.80,29.67,29.47,5,4,2,13,7,,0.00,,,79
2012-11-29,60,51,42,50,45,36,94,82,55,29.47,29.38,29.30,6,6,2,22,11,,0.00,5,Rain,157
2012-11-30,44,40,37,36,34,32,87,77,70,29.80,29.62,29.44,6,6,6,15,11,,0.00,6,Rain,292